createdAt,value
2018-11-21T00:01:46.809Z,13.33
2018-11-21T00:04:15.840Z,13.17
2018-11-21T00:06:45.143Z,13.17
2018-11-21T00:09:14.159Z,14.70
2018-11-21T00:11:43.152Z,13.40
2018-11-21T00:14:12.152Z,13.67
2018-11-21T00:16:41.249Z,13.00
2018-11-21T00:19:10.372Z,12.97
2018-11-21T00:21:39.347Z,13.70
2018-11-21T00:24:08.376Z,13.53
2018-11-21T00:26:37.392Z,12.83
2018-11-21T00:29:06.449Z,12.40
2018-11-21T00:31:35.481Z,13.97
2018-11-21T00:34:04.520Z,12.77
2018-11-21T00:36:33.594Z,13.80
2018-11-21T00:39:02.568Z,14.67
2018-11-21T00:41:31.705Z,14.07
2018-11-21T00:44:00.661Z,13.53
2018-11-21T00:46:31.159Z,14.57
2018-11-21T00:49:00.159Z,13.87
2018-11-21T00:51:29.160Z,13.13
2018-11-21T00:53:58.217Z,13.93
2018-11-21T00:56:27.165Z,14.23
2018-11-21T00:58:56.304Z,15.00
2018-11-21T01:01:25.285Z,13.73
2018-11-21T01:03:54.261Z,12.43
2018-11-21T01:06:23.271Z,12.93
2018-11-21T01:08:52.276Z,13.53
2018-11-21T01:11:21.456Z,15.37
2018-11-21T01:13:50.461Z,13.93
2018-11-21T01:16:19.439Z,13.63
2018-11-21T01:18:48.459Z,15.53
2018-11-21T01:21:17.439Z,13.87
2018-11-21T01:23:46.446Z,15.50
2018-11-21T01:26:15.530Z,12.80
2018-11-21T01:28:44.564Z,14.93
2018-11-21T01:31:13.564Z,13.80
2018-11-21T01:33:42.543Z,14.20
2018-11-21T01:36:11.589Z,13.77
2018-11-21T01:38:40.658Z,14.03
2018-11-21T01:41:09.731Z,13.17
2018-11-21T01:43:38.717Z,13.53
2018-11-21T01:46:07.729Z,13.77
2018-11-21T01:48:36.922Z,14.40
2018-11-21T01:51:05.938Z,14.97
2018-11-21T01:53:35.252Z,12.30
2018-11-21T01:56:04.458Z,14.27
2018-11-21T01:58:33.460Z,12.77
2018-11-21T02:01:02.584Z,14.57
2018-11-21T02:03:31.584Z,10.83
2018-11-21T02:06:00.667Z,13.63
2018-11-21T02:08:29.656Z,13.97
2018-11-21T02:10:58.660Z,14.40
2018-11-21T02:13:27.716Z,14.17
2018-11-21T02:15:56.704Z,13.97
2018-11-21T02:18:25.705Z,13.60
2018-11-21T02:20:54.720Z,15.53
2018-11-21T02:23:23.790Z,15.40
2018-11-21T02:25:52.850Z,14.50
2018-11-21T02:28:21.876Z,14.90
2018-11-21T02:30:51.056Z,14.00
2018-11-21T02:33:20.065Z,14.80
2018-11-21T02:35:49.127Z,15.37
2018-11-21T02:38:18.301Z,16.53
2018-11-21T02:40:47.329Z,15.20
2018-11-21T02:43:16.372Z,14.10
2018-11-21T02:45:45.576Z,15.50
2018-11-21T02:48:14.595Z,16.80
2018-11-21T02:50:43.579Z,16.50
2018-11-21T02:53:12.757Z,16.27
2018-11-21T02:55:41.886Z,14.97
2018-11-21T02:58:13.870Z,16.23
2018-11-21T03:00:43.080Z,14.87
2018-11-21T03:03:12.107Z,17.60
2018-11-21T03:05:41.120Z,14.93
2018-11-21T03:08:10.155Z,16.43
2018-11-21T03:10:39.192Z,16.03
2018-11-21T03:13:08.267Z,17.13
2018-11-21T03:15:37.300Z,15.80
2018-11-21T03:18:06.328Z,17.23
2018-11-21T03:20:35.319Z,16.43
2018-11-21T03:23:04.352Z,17.80
2018-11-21T03:25:33.553Z,16.67
2018-11-21T03:28:02.549Z,16.63
2018-11-21T03:30:31.903Z,17.43
2018-11-21T03:33:00.905Z,17.20
2018-11-21T03:35:30.095Z,17.47
2018-11-21T03:37:59.118Z,16.73
2018-11-21T03:40:28.123Z,16.60
2018-11-21T03:42:57.159Z,18.33
2018-11-21T03:45:26.178Z,17.80
2018-11-21T03:47:55.187Z,16.50
2018-11-21T03:50:24.209Z,16.40
2018-11-21T03:52:53.220Z,14.40
2018-11-21T03:55:22.232Z,17.80
2018-11-21T03:57:51.223Z,18.30
2018-11-21T04:00:20.241Z,18.37
2018-11-21T04:02:49.219Z,17.07
2018-11-21T04:05:18.262Z,15.23
2018-11-21T04:07:47.238Z,16.97
2018-11-21T04:10:16.432Z,17.47
2018-11-21T04:12:45.469Z,17.97
2018-11-21T04:15:14.595Z,17.73
2018-11-21T04:17:43.592Z,17.17
2018-11-21T04:20:12.618Z,17.87
2018-11-21T04:22:41.687Z,15.93
2018-11-21T04:25:11.957Z,18.27
2018-11-21T04:27:41.364Z,18.90
2018-11-21T04:30:12.474Z,20.40
2018-11-21T04:32:41.768Z,18.93
2018-11-21T04:35:10.769Z,17.70
2018-11-21T04:37:39.799Z,17.77
2018-11-21T04:40:08.888Z,16.80
2018-11-21T04:42:38.343Z,17.37
2018-11-21T04:45:08.818Z,17.20
2018-11-21T04:47:37.840Z,17.00
2018-11-21T04:50:07.367Z,16.77
2018-11-21T04:52:36.408Z,18.07
2018-11-21T04:55:06.807Z,17.03
2018-11-21T04:57:36.339Z,18.77
2018-11-21T05:00:07.645Z,17.73
2018-11-21T05:02:36.663Z,16.93
2018-11-21T05:05:07.520Z,18.13
2018-11-21T05:07:36.554Z,17.33
2018-11-21T05:10:06.697Z,17.30
2018-11-21T05:12:36.100Z,16.87
2018-11-21T05:15:05.807Z,17.43
2018-11-21T05:17:34.866Z,16.77
2018-11-21T05:20:03.926Z,17.50
2018-11-21T05:22:32.966Z,17.90
2018-11-21T05:25:01.987Z,18.20
2018-11-21T05:27:31.054Z,16.83
2018-11-21T05:30:00.098Z,17.53
2018-11-21T05:32:29.092Z,16.83
2018-11-21T05:34:58.372Z,17.37
2018-11-21T05:37:27.393Z,19.00
2018-11-21T05:39:56.397Z,17.10
2018-11-21T05:42:25.416Z,19.33
2018-11-21T05:44:54.501Z,17.20
2018-11-21T05:47:23.487Z,17.97
2018-11-21T05:49:52.543Z,17.07
2018-11-21T05:52:21.561Z,18.60
2018-11-21T05:54:50.561Z,18.47
2018-11-21T05:57:19.765Z,16.73
2018-11-21T05:59:48.822Z,18.53
2018-11-21T06:02:18.287Z,18.37
2018-11-21T06:04:47.417Z,17.23
2018-11-21T06:07:16.662Z,18.27
2018-11-21T06:09:45.733Z,18.60
2018-11-21T06:12:14.759Z,18.00
2018-11-21T06:14:43.801Z,18.10
2018-11-21T06:17:13.087Z,17.23
2018-11-21T06:19:42.130Z,18.77
2018-11-21T06:22:11.161Z,18.07
2018-11-21T06:24:40.156Z,18.70
2018-11-21T06:27:09.423Z,19.13
2018-11-21T06:29:38.775Z,18.80
2018-11-21T06:32:07.816Z,17.47
2018-11-21T06:34:37.041Z,18.87
2018-11-21T06:37:06.047Z,18.70
2018-11-21T06:39:35.084Z,18.83
2018-11-21T06:42:04.095Z,20.10
2018-11-21T06:44:33.293Z,16.60
2018-11-21T06:47:02.481Z,19.10
2018-11-21T06:49:31.506Z,21.60
2018-11-21T06:52:00.700Z,21.13
2018-11-21T06:54:29.761Z,21.80
2018-11-21T06:56:58.808Z,21.83
2018-11-21T06:59:47.171Z,19.60
2018-11-21T07:02:16.239Z,20.83
2018-11-21T07:04:45.240Z,20.37
2018-11-21T07:07:14.368Z,20.77
2018-11-21T07:09:44.868Z,20.00
2018-11-21T07:12:13.908Z,20.27
2018-11-21T07:14:43.113Z,20.97
2018-11-21T07:17:12.299Z,21.30
2018-11-21T07:19:41.280Z,22.13
2018-11-21T07:22:10.305Z,20.73
2018-11-21T07:24:39.336Z,20.70
2018-11-21T07:27:08.560Z,20.57
2018-11-21T07:29:37.627Z,22.60
2018-11-21T07:32:06.663Z,22.20
2018-11-21T07:34:35.695Z,21.07
2018-11-21T07:37:04.688Z,21.20
2018-11-21T07:39:33.749Z,20.60
2018-11-21T07:42:04.107Z,20.07
2018-11-21T07:44:33.101Z,18.70
2018-11-21T07:47:02.111Z,20.53
2018-11-21T07:49:31.153Z,19.23
2018-11-21T07:52:00.173Z,18.67
2018-11-21T07:54:29.344Z,19.30
2018-11-21T07:57:31.747Z,18.97
2018-11-21T08:00:58.459Z,19.17
2018-11-21T08:03:29.235Z,19.20
2018-11-21T08:06:07.295Z,20.60
2018-11-21T08:08:55.489Z,19.13
2018-11-21T08:11:51.363Z,18.83
2018-11-21T08:14:38.223Z,18.57
2018-11-21T08:17:19.015Z,18.70
2018-11-21T08:20:07.374Z,19.10
2018-11-21T08:22:54.393Z,20.17
2018-11-21T08:25:54.701Z,19.40
2018-11-21T08:28:30.680Z,19.50
2018-11-21T08:31:00.009Z,16.80
2018-11-21T08:33:33.878Z,20.07
2018-11-21T08:35:59.288Z,18.63
2018-11-21T08:38:28.451Z,21.10
2018-11-21T08:40:57.468Z,19.40
2018-11-21T08:43:26.462Z,18.23
2018-11-21T08:45:55.558Z,19.07
2018-11-21T08:48:24.960Z,18.87
2018-11-21T08:50:54.160Z,18.13
2018-11-21T08:53:23.573Z,18.17
2018-11-21T08:55:52.562Z,19.40
2018-11-21T08:58:21.744Z,18.57
2018-11-21T09:00:50.962Z,17.80
2018-11-21T09:03:20.133Z,17.93
2018-11-21T09:05:49.182Z,18.67
2018-11-21T09:08:18.187Z,17.53
2018-11-21T09:10:47.177Z,19.37
2018-11-21T09:13:16.343Z,18.97
2018-11-21T09:15:45.857Z,18.33
2018-11-21T09:18:15.017Z,18.20
2018-11-21T09:20:44.135Z,17.53
2018-11-21T09:23:13.127Z,17.03
2018-11-21T09:25:42.175Z,18.03
2018-11-21T09:28:11.238Z,19.33
2018-11-21T09:30:40.287Z,18.70
2018-11-21T09:33:09.340Z,17.50
2018-11-21T09:35:38.364Z,16.07
2018-11-21T09:38:07.373Z,18.33
2018-11-21T09:40:36.442Z,16.23
2018-11-21T09:43:05.952Z,16.10
2018-11-21T09:45:34.983Z,16.20
2018-11-21T09:48:04.054Z,16.43
2018-11-21T09:50:33.990Z,15.97
2018-11-21T09:53:03.362Z,16.63
2018-11-21T09:55:32.418Z,15.43
2018-11-21T09:58:01.506Z,15.83
2018-11-21T10:01:07.240Z,15.50
2018-11-21T10:03:37.545Z,14.03
2018-11-21T10:06:23.886Z,16.27
2018-11-21T10:08:54.592Z,15.10
2018-11-21T10:11:23.670Z,15.47
2018-11-21T10:13:52.985Z,15.10
2018-11-21T10:16:22.048Z,14.83
2018-11-21T10:18:52.764Z,13.93
2018-11-21T10:21:23.494Z,14.40
2018-11-21T10:23:52.851Z,14.47
2018-11-21T10:26:22.054Z,14.97
2018-11-21T10:28:52.074Z,14.90
2018-11-21T10:31:21.229Z,15.70
2018-11-21T10:33:50.636Z,14.17
2018-11-21T10:36:19.706Z,12.93
2018-11-21T10:38:48.881Z,14.67
2018-11-21T10:41:17.905Z,15.23
2018-11-21T10:43:47.014Z,13.80
2018-11-21T10:46:16.087Z,13.50
2018-11-21T10:48:45.290Z,12.77
2018-11-21T10:51:15.047Z,14.47
2018-11-21T10:53:43.385Z,14.80
2018-11-21T10:56:12.608Z,15.40
2018-11-21T10:58:41.776Z,14.83
2018-11-21T11:01:24.453Z,14.30
2018-11-21T11:03:59.139Z,14.50
2018-11-21T11:06:46.231Z,13.57
2018-11-21T11:09:49.673Z,13.83
2018-11-21T11:12:37.898Z,13.83
2018-11-21T11:15:38.135Z,14.07
2018-11-21T11:18:29.329Z,14.73
2018-11-21T11:21:16.339Z,15.20
2018-11-21T11:24:12.902Z,14.57
2018-11-21T11:26:50.088Z,12.63
2018-11-21T11:29:38.359Z,11.77
2018-11-21T11:32:35.580Z,12.40
2018-11-21T11:35:22.863Z,12.93
2018-11-21T11:38:13.411Z,12.63
2018-11-21T11:41:04.681Z,13.10
2018-11-21T11:43:51.733Z,13.07
2018-11-21T11:46:52.189Z,12.47
2018-11-21T11:49:39.594Z,11.23
2018-11-21T11:52:42.968Z,12.93
2018-11-21T11:55:37.245Z,11.50
2018-11-21T11:58:25.450Z,12.13
2018-11-21T12:01:07.410Z,12.63
2018-11-21T12:03:57.813Z,12.67
2018-11-21T12:06:49.184Z,11.70
2018-11-21T12:09:49.358Z,11.73
2018-11-21T12:12:44.045Z,11.73
2018-11-21T12:15:31.206Z,10.93
2018-11-21T12:18:34.742Z,11.13
2018-11-21T12:21:22.931Z,10.70
2018-11-21T12:24:11.097Z,11.37
2018-11-21T12:27:08.539Z,10.07
2018-11-21T12:30:03.489Z,11.23
2018-11-21T12:32:50.491Z,10.83
2018-11-21T12:35:44.812Z,10.30
2018-11-21T12:38:36.180Z,10.17
2018-11-21T12:41:27.489Z,9.83
2018-11-21T12:44:14.838Z,10.43
2018-11-21T12:47:04.928Z,11.57
2018-11-21T12:49:53.171Z,11.73
2018-11-21T12:52:50.274Z,11.50
2018-11-21T12:55:50.737Z,11.43
2018-11-21T12:58:37.797Z,11.73
2018-11-21T13:01:32.217Z,10.33
2018-11-21T13:04:20.514Z,11.70
2018-11-21T13:07:11.624Z,10.63
2018-11-21T13:10:08.224Z,10.70
2018-11-21T13:13:02.480Z,11.23
2018-11-21T13:16:02.722Z,10.17
2018-11-21T13:19:06.135Z,9.60
2018-11-21T13:21:58.394Z,8.60
2018-11-21T13:24:45.837Z,8.50
2018-11-21T13:27:32.915Z,9.73
2018-11-21T13:30:24.272Z,8.03
2018-11-21T13:33:04.343Z,8.23
2018-11-21T13:35:46.027Z,10.00
2018-11-21T13:38:43.845Z,9.63
2018-11-21T13:41:32.050Z,10.57
2018-11-21T13:44:26.247Z,10.47
2018-11-21T13:47:17.395Z,10.33
2018-11-21T13:50:05.328Z,9.27
